createdAt,value
2018-04-30T00:01:31.757Z,3.60
2018-04-30T00:04:07.054Z,3.70
2018-04-30T00:06:42.419Z,3.83
2018-04-30T00:09:17.707Z,3.77
2018-04-30T00:11:52.984Z,4.50
2018-04-30T00:14:28.340Z,4.40
2018-04-30T00:17:03.428Z,4.03
2018-04-30T00:19:38.698Z,4.93
2018-04-30T00:22:13.956Z,3.60
2018-04-30T00:24:49.374Z,3.23
2018-04-30T00:27:24.561Z,3.37
2018-04-30T00:30:00.623Z,3.10
2018-04-30T00:32:35.983Z,2.80
2018-04-30T00:35:11.295Z,2.97
2018-04-30T00:37:47.358Z,2.40
2018-04-30T00:40:23.332Z,2.20
2018-04-30T00:42:58.636Z,2.90
2018-04-30T00:45:33.811Z,2.33
2018-04-30T00:48:09.164Z,3.00
2018-04-30T00:50:44.435Z,2.60
2018-04-30T00:53:19.677Z,2.83
2018-04-30T00:55:54.928Z,3.57
2018-04-30T00:58:30.089Z,2.80
2018-04-30T01:01:05.329Z,2.60
2018-04-30T01:03:42.741Z,2.67
2018-04-30T01:06:18.716Z,3.30
2018-04-30T01:08:54.652Z,2.50
2018-04-30T01:11:30.674Z,3.13
2018-04-30T01:14:06.027Z,3.00
2018-04-30T01:16:41.239Z,2.40
2018-04-30T01:19:16.498Z,2.80
2018-04-30T01:21:51.639Z,2.40
2018-04-30T01:24:26.871Z,2.90
2018-04-30T01:27:02.335Z,3.00
2018-04-30T01:29:37.666Z,2.87
2018-04-30T01:32:12.995Z,3.07
2018-04-30T01:34:48.338Z,3.23
2018-04-30T01:37:23.716Z,3.43
2018-04-30T01:39:58.852Z,3.63
2018-04-30T01:42:34.700Z,2.80
2018-04-30T01:45:09.880Z,3.20
2018-04-30T01:47:45.421Z,3.00
2018-04-30T01:50:20.547Z,2.73
2018-04-30T01:52:55.871Z,3.80
2018-04-30T01:55:31.040Z,1.60
2018-04-30T01:58:07.100Z,1.50
2018-04-30T02:00:42.365Z,0.80
2018-04-30T02:03:18.375Z,0.87
2018-04-30T02:05:53.694Z,1.00
2018-04-30T02:08:29.694Z,1.10
2018-04-30T02:11:04.877Z,1.00
2018-04-30T02:13:40.163Z,0.93
2018-04-30T02:16:15.520Z,1.03
2018-04-30T02:18:50.796Z,1.10
2018-04-30T02:21:26.357Z,1.10
2018-04-30T02:24:04.691Z,0.97
2018-04-30T02:26:40.082Z,1.20
2018-04-30T02:29:15.387Z,1.00
2018-04-30T02:31:50.768Z,1.30
2018-04-30T02:34:26.865Z,0.93
2018-04-30T02:37:02.071Z,1.23
2018-04-30T02:39:37.332Z,1.00
2018-04-30T02:42:12.559Z,1.03
2018-04-30T02:44:47.723Z,1.07
2018-04-30T02:47:23.091Z,1.37
2018-04-30T02:49:59.087Z,1.47
2018-04-30T02:52:34.430Z,1.23
2018-04-30T02:55:09.798Z,1.53
2018-04-30T02:57:45.072Z,1.67
2018-04-30T03:00:20.191Z,1.30
2018-04-30T03:02:55.538Z,1.00
2018-04-30T03:05:30.818Z,1.00
2018-04-30T03:08:06.806Z,0.80
2018-04-30T03:10:42.653Z,0.80
2018-04-30T03:13:17.908Z,1.07
2018-04-30T03:15:53.906Z,1.10
2018-04-30T03:18:29.083Z,0.80
2018-04-30T03:21:05.134Z,0.70
2018-04-30T03:23:40.490Z,0.40
2018-04-30T03:26:15.772Z,0.60
2018-04-30T03:28:51.775Z,0.93
2018-04-30T03:31:26.992Z,0.50
2018-04-30T03:34:02.248Z,0.53
2018-04-30T03:36:37.616Z,0.40
2018-04-30T03:39:14.236Z,0.40
2018-04-30T03:41:50.223Z,0.63
2018-04-30T03:44:26.309Z,0.50
2018-04-30T03:47:02.148Z,0.93
2018-04-30T03:49:37.427Z,0.60
2018-04-30T03:52:12.921Z,0.50
2018-04-30T03:54:48.880Z,0.40
2018-04-30T03:57:24.248Z,0.57
2018-04-30T03:59:59.384Z,0.50
2018-04-30T04:16:06.928Z,0.60
2018-04-30T04:18:42.252Z,0.60
2018-04-30T04:21:17.518Z,0.70
2018-04-30T04:23:52.868Z,0.60
2018-04-30T04:26:28.003Z,0.70
2018-04-30T04:29:03.170Z,0.40
2018-04-30T04:31:38.562Z,0.60
2018-04-30T04:34:13.800Z,0.40
2018-04-30T04:36:49.029Z,0.40
2018-04-30T04:39:24.356Z,0.50
2018-04-30T04:41:59.648Z,0.40
2018-04-30T04:44:35.198Z,0.50
2018-04-30T04:47:10.404Z,0.53
2018-04-30T04:49:45.689Z,0.37
2018-04-30T04:52:20.924Z,0.50
2018-04-30T04:54:56.273Z,0.50
2018-04-30T04:57:31.642Z,0.73
2018-04-30T05:00:07.573Z,0.50
2018-04-30T05:02:42.670Z,0.50
2018-04-30T05:05:18.119Z,0.40
2018-04-30T05:07:53.982Z,0.50
2018-04-30T05:10:29.953Z,0.53
2018-04-30T05:13:05.144Z,0.40
2018-04-30T05:15:40.419Z,0.67
2018-04-30T05:18:15.768Z,0.40
2018-04-30T05:20:51.737Z,0.43
2018-04-30T05:23:27.679Z,0.40
2018-04-30T05:26:02.782Z,0.50
2018-04-30T05:28:38.102Z,0.30
2018-04-30T05:31:13.219Z,0.50
2018-04-30T05:33:49.260Z,0.70
2018-04-30T05:36:25.216Z,0.60
2018-04-30T05:39:00.449Z,0.60
2018-04-30T05:41:35.617Z,0.53
2018-04-30T05:44:11.591Z,0.50
2018-04-30T05:46:47.507Z,0.57
2018-04-30T05:49:22.799Z,0.50
2018-04-30T05:51:58.230Z,0.50
2018-04-30T05:54:33.391Z,0.70
2018-04-30T05:57:09.006Z,0.60
2018-04-30T05:59:46.889Z,0.80
2018-04-30T06:02:22.075Z,0.40
2018-04-30T06:04:57.426Z,3.23
2018-04-30T06:07:32.687Z,0.60
2018-04-30T06:10:08.062Z,0.40
2018-04-30T06:12:43.979Z,0.57
2018-04-30T06:15:19.201Z,0.40
2018-04-30T06:17:54.339Z,0.43
2018-04-30T06:20:29.528Z,0.50
2018-04-30T06:23:04.818Z,0.53
2018-04-30T06:25:40.110Z,0.53
2018-04-30T06:28:15.411Z,0.60
2018-04-30T06:30:51.387Z,0.67
2018-04-30T06:33:27.329Z,0.60
2018-04-30T06:36:02.668Z,0.50
2018-04-30T06:38:38.015Z,0.43
2018-04-30T06:41:13.347Z,0.50
2018-04-30T06:43:49.434Z,0.50
2018-04-30T06:46:24.757Z,0.50
2018-04-30T06:49:01.958Z,0.57
2018-04-30T06:51:38.008Z,0.70
2018-04-30T06:54:13.213Z,0.53
2018-04-30T06:56:48.482Z,0.53
2018-04-30T06:59:23.759Z,0.50
2018-04-30T07:01:59.055Z,0.60
2018-04-30T07:04:34.488Z,0.40
2018-04-30T07:07:09.870Z,0.63
2018-04-30T07:09:45.169Z,0.70
2018-04-30T07:12:20.720Z,0.67
2018-04-30T07:14:56.601Z,0.57
2018-04-30T07:17:32.724Z,0.53
2018-04-30T07:20:08.136Z,0.40
2018-04-30T07:22:44.068Z,0.60
2018-04-30T07:25:19.226Z,0.30
2018-04-30T07:27:55.357Z,0.60
2018-04-30T07:30:31.293Z,0.40
2018-04-30T07:33:06.560Z,0.80
2018-04-30T07:35:41.662Z,0.57
2018-04-30T07:38:17.015Z,0.40
2018-04-30T07:40:52.349Z,0.57
2018-04-30T07:43:27.483Z,0.70
2018-04-30T07:46:02.821Z,0.50
2018-04-30T07:48:38.143Z,0.77
2018-04-30T07:51:13.389Z,0.47
2018-04-30T07:53:48.570Z,0.70
2018-04-30T07:56:24.627Z,0.50
2018-04-30T07:58:59.928Z,0.43
2018-04-30T08:01:36.432Z,0.67
2018-04-30T08:04:12.434Z,0.57
2018-04-30T08:06:47.700Z,0.50
2018-04-30T08:09:23.060Z,0.83
2018-04-30T08:11:58.179Z,0.50
2018-04-30T08:14:33.429Z,0.67
2018-04-30T08:17:08.662Z,1.03
2018-04-30T08:19:44.019Z,0.50
2018-04-30T08:22:19.525Z,0.50
2018-04-30T08:24:55.593Z,0.50
2018-04-30T08:27:30.858Z,0.50
2018-04-30T08:30:06.501Z,0.50
2018-04-30T08:32:41.567Z,0.50
2018-04-30T08:35:18.181Z,0.47
2018-04-30T08:37:53.562Z,0.40
2018-04-30T08:40:28.882Z,0.40
2018-04-30T08:43:04.887Z,0.50
2018-04-30T08:45:40.847Z,0.43
2018-04-30T08:48:16.158Z,0.40
2018-04-30T08:50:51.623Z,0.50
2018-04-30T08:53:26.934Z,0.60
2018-04-30T08:56:02.288Z,0.50
2018-04-30T08:58:38.301Z,0.47
2018-04-30T09:01:13.596Z,0.43
2018-04-30T09:03:48.929Z,0.50
2018-04-30T09:06:24.155Z,0.63
2018-04-30T09:08:59.392Z,0.43
2018-04-30T09:11:34.740Z,0.70
2018-04-30T09:14:10.107Z,0.47
2018-04-30T09:16:45.591Z,0.40
2018-04-30T09:19:20.995Z,0.50
2018-04-30T09:21:56.226Z,0.60
2018-04-30T09:24:31.464Z,0.40
2018-04-30T09:27:06.721Z,0.50
2018-04-30T09:29:42.015Z,0.63
2018-04-30T09:32:17.895Z,0.60
2018-04-30T09:34:53.948Z,0.47
2018-04-30T09:37:29.288Z,0.30
2018-04-30T09:40:04.538Z,0.40
2018-04-30T09:42:39.791Z,0.33
2018-04-30T09:45:15.173Z,0.30
2018-04-30T09:47:50.435Z,0.50
2018-04-30T09:50:28.243Z,0.40
2018-04-30T09:53:03.621Z,0.70
2018-04-30T09:55:38.952Z,0.50
2018-04-30T09:58:14.371Z,0.47
2018-04-30T10:00:49.578Z,0.67
2018-04-30T10:03:24.692Z,0.50
2018-04-30T10:06:00.015Z,0.57
2018-04-30T10:08:35.145Z,0.60
2018-04-30T10:11:11.448Z,0.60
2018-04-30T10:13:47.584Z,0.53
2018-04-30T10:16:25.643Z,0.33
2018-04-30T10:19:02.537Z,0.53
2018-04-30T10:21:38.432Z,0.60
2018-04-30T10:24:14.462Z,0.70
2018-04-30T10:26:49.536Z,0.50
2018-04-30T10:29:25.755Z,0.50
2018-04-30T10:32:01.217Z,0.70
2018-04-30T10:34:36.420Z,0.40
2018-04-30T10:37:11.805Z,0.40
2018-04-30T10:39:47.753Z,0.60
2018-04-30T10:42:22.936Z,0.40
2018-04-30T10:44:58.972Z,0.40
2018-04-30T10:47:34.365Z,0.40
2018-04-30T10:50:09.526Z,0.50
2018-04-30T10:52:44.839Z,0.50
2018-04-30T10:55:20.970Z,0.60
2018-04-30T10:57:56.861Z,0.57
2018-04-30T11:00:33.519Z,0.40
2018-04-30T11:03:08.773Z,0.30
2018-04-30T11:05:45.203Z,0.30
2018-04-30T11:08:20.251Z,0.70
2018-04-30T11:10:56.146Z,0.43
2018-04-30T11:13:31.304Z,0.50
2018-04-30T11:16:06.676Z,0.50
2018-04-30T11:18:41.857Z,0.40
2018-04-30T11:21:17.090Z,0.60
2018-04-30T11:23:52.439Z,0.63
2018-04-30T11:26:27.760Z,0.53
2018-04-30T11:29:03.079Z,0.50
2018-04-30T11:31:38.238Z,0.30
2018-04-30T11:34:14.214Z,0.40
2018-04-30T11:36:49.405Z,0.30
2018-04-30T11:39:24.608Z,0.43
2018-04-30T11:41:59.964Z,0.50
2018-04-30T11:44:35.979Z,0.40
2018-04-30T11:47:11.314Z,0.50
2018-04-30T11:49:46.618Z,0.30
2018-04-30T11:52:21.747Z,0.40
2018-04-30T11:54:56.891Z,0.40
2018-04-30T11:57:32.286Z,0.60
2018-04-30T12:00:08.246Z,0.40
2018-04-30T12:02:43.573Z,0.40
2018-04-30T12:05:18.915Z,0.50
2018-04-30T12:07:54.259Z,0.50
2018-04-30T12:10:29.485Z,0.43
2018-04-30T12:13:05.530Z,0.47
2018-04-30T12:15:41.633Z,0.40
2018-04-30T12:18:16.771Z,0.40
2018-04-30T12:20:52.217Z,0.60
2018-04-30T12:23:27.583Z,0.50
2018-04-30T12:26:03.044Z,0.50
2018-04-30T12:28:38.225Z,0.70
2018-04-30T12:31:13.338Z,0.50
2018-04-30T12:33:49.249Z,0.43
2018-04-30T12:36:24.468Z,0.60
2018-04-30T12:38:59.691Z,0.63
2018-04-30T12:41:35.164Z,0.70
2018-04-30T12:44:10.451Z,0.60
2018-04-30T12:46:45.646Z,1.00
2018-04-30T12:49:20.982Z,1.20
2018-04-30T12:51:56.313Z,0.40
2018-04-30T12:54:31.549Z,0.50
2018-04-30T12:57:06.920Z,0.60
2018-04-30T12:59:42.254Z,0.60
2018-04-30T13:02:17.423Z,0.60
2018-04-30T13:04:52.760Z,0.93
2018-04-30T13:07:28.078Z,0.50
2018-04-30T13:10:03.160Z,0.70
2018-04-30T13:12:38.428Z,0.60
2018-04-30T13:15:13.785Z,0.60
2018-04-30T13:17:49.115Z,0.50
2018-04-30T13:20:24.431Z,0.70
2018-04-30T13:22:59.795Z,0.60
2018-04-30T13:25:35.174Z,1.00
2018-04-30T13:28:11.111Z,0.47
2018-04-30T13:30:46.346Z,0.70
2018-04-30T13:33:21.560Z,0.60
2018-04-30T13:36:03.030Z,0.60
2018-04-30T13:38:39.043Z,0.47
2018-04-30T13:41:15.069Z,0.40
2018-04-30T13:43:50.437Z,0.70
2018-04-30T13:46:25.741Z,1.00
2018-04-30T13:49:01.040Z,0.57
2018-04-30T13:51:36.342Z,1.13
2018-04-30T13:54:11.811Z,1.13
2018-04-30T13:56:47.218Z,0.50
2018-04-30T13:59:23.145Z,0.50
2018-04-30T14:01:58.480Z,0.60
2018-04-30T14:04:33.651Z,0.60
2018-04-30T14:07:09.731Z,0.40
2018-04-30T14:09:45.703Z,0.50
2018-04-30T14:12:20.846Z,0.60
2018-04-30T14:14:56.160Z,0.70
2018-04-30T14:17:31.635Z,0.50
2018-04-30T14:20:06.963Z,0.50
2018-04-30T14:22:42.267Z,0.50
2018-04-30T14:25:17.634Z,0.60
2018-04-30T14:27:52.979Z,1.00
2018-04-30T14:30:28.282Z,0.73
2018-04-30T14:33:04.297Z,0.47
2018-04-30T14:35:39.398Z,0.77
2018-04-30T14:38:14.686Z,0.77
2018-04-30T14:40:49.870Z,0.80
2018-04-30T14:43:25.327Z,0.50
2018-04-30T14:46:00.568Z,0.70
2018-04-30T14:48:35.935Z,0.57
2018-04-30T14:51:11.134Z,0.80
2018-04-30T14:53:46.427Z,0.47
2018-04-30T14:56:22.714Z,0.50
2018-04-30T14:58:57.844Z,0.70
2018-04-30T15:01:33.136Z,0.40
2018-04-30T15:04:09.336Z,0.50
2018-04-30T15:06:44.464Z,0.40
2018-04-30T15:09:19.797Z,0.53
2018-04-30T15:11:55.084Z,0.47
2018-04-30T15:14:30.351Z,0.70
2018-04-30T15:17:05.735Z,0.70
2018-04-30T15:19:40.860Z,0.50
2018-04-30T15:22:16.179Z,0.57
2018-04-30T15:24:52.276Z,0.50
2018-04-30T15:27:27.424Z,0.40
2018-04-30T15:30:02.747Z,0.70
2018-04-30T15:32:38.732Z,0.57
2018-04-30T15:35:14.020Z,0.53
2018-04-30T15:37:49.342Z,0.40
2018-04-30T15:40:24.693Z,0.60
2018-04-30T15:43:00.104Z,0.60
2018-04-30T15:45:35.323Z,0.60
2018-04-30T15:48:10.598Z,0.50
2018-04-30T15:50:45.955Z,0.60
2018-04-30T15:53:21.122Z,0.40
2018-04-30T15:55:56.433Z,1.27
2018-04-30T15:58:31.767Z,0.50
2018-04-30T16:01:07.139Z,0.73
2018-04-30T16:03:42.447Z,0.37
2018-04-30T16:06:17.729Z,0.60
2018-04-30T16:08:53.033Z,0.50
2018-04-30T16:11:28.288Z,0.33
2018-04-30T16:14:03.680Z,0.80
2018-04-30T16:16:41.202Z,0.57
2018-04-30T16:19:16.420Z,0.70
2018-04-30T16:21:51.743Z,0.80
2018-04-30T16:24:26.906Z,0.63
2018-04-30T16:27:02.281Z,0.70
2018-04-30T16:29:38.151Z,0.37
2018-04-30T16:32:14.149Z,0.40
2018-04-30T16:34:49.438Z,1.67
2018-04-30T16:37:24.771Z,2.00
2018-04-30T16:40:00.133Z,1.10
2018-04-30T16:42:35.467Z,0.40
2018-04-30T16:45:10.811Z,0.50
2018-04-30T16:47:46.136Z,0.30
2018-04-30T16:50:21.411Z,0.50
2018-04-30T16:52:56.726Z,0.57
2018-04-30T16:55:31.912Z,0.50
2018-04-30T16:58:07.168Z,0.80
2018-04-30T17:00:42.364Z,0.67
2018-04-30T17:03:17.663Z,0.80
2018-04-30T17:05:52.920Z,0.40
2018-04-30T17:08:28.258Z,0.50
2018-04-30T17:11:04.364Z,0.30
2018-04-30T17:13:39.766Z,0.33
2018-04-30T17:16:15.026Z,0.77
2018-04-30T17:18:50.166Z,0.60
2018-04-30T17:21:25.511Z,0.40
2018-04-30T17:24:00.894Z,0.47
2018-04-30T17:26:36.189Z,0.30
2018-04-30T17:29:11.437Z,0.50
2018-04-30T17:31:49.154Z,0.57
2018-04-30T17:34:24.278Z,0.60
2018-04-30T17:37:00.410Z,0.40
2018-04-30T17:39:35.719Z,1.13
2018-04-30T17:42:11.664Z,0.70
2018-04-30T17:44:46.937Z,0.60
2018-04-30T17:47:22.382Z,0.50
2018-04-30T17:49:57.575Z,0.50
2018-04-30T17:52:32.892Z,0.50
2018-04-30T17:55:08.201Z,0.50
2018-04-30T17:57:44.229Z,0.60
2018-04-30T18:00:19.529Z,0.80
2018-04-30T18:02:54.860Z,0.50
2018-04-30T18:05:30.139Z,0.50
2018-04-30T18:08:05.455Z,0.90
2018-04-30T18:10:41.416Z,0.63
2018-04-30T18:13:16.758Z,0.93
2018-04-30T18:15:51.847Z,0.57
2018-04-30T18:18:27.134Z,0.67
2018-04-30T18:21:02.447Z,0.47
2018-04-30T18:23:37.734Z,0.50
2018-04-30T18:26:13.750Z,0.97
2018-04-30T18:28:49.807Z,13.17
2018-04-30T18:31:25.207Z,5.70
2018-04-30T18:34:01.103Z,0.63
2018-04-30T18:36:37.083Z,0.60
2018-04-30T18:39:12.294Z,0.70
2018-04-30T18:41:47.492Z,0.60
2018-04-30T18:44:23.410Z,0.40
2018-04-30T18:46:58.643Z,0.53
2018-04-30T18:49:34.668Z,0.30
2018-04-30T18:52:11.908Z,0.50
2018-04-30T18:54:47.097Z,0.40
2018-04-30T18:57:22.457Z,0.50
2018-04-30T18:59:57.789Z,0.40
2018-04-30T19:02:32.978Z,0.30
2018-04-30T19:05:08.880Z,0.70
2018-04-30T19:07:45.008Z,0.50
2018-04-30T19:10:20.953Z,0.40
2018-04-30T19:12:56.152Z,0.50
2018-04-30T19:15:31.258Z,0.53
2018-04-30T19:18:06.680Z,0.40
2018-04-30T19:20:42.596Z,0.40
2018-04-30T19:23:18.454Z,0.40
2018-04-30T19:25:53.730Z,0.37
2018-04-30T19:28:29.031Z,0.60
2018-04-30T19:31:04.363Z,0.53
2018-04-30T19:33:40.242Z,0.40
2018-04-30T19:36:15.352Z,0.60
2018-04-30T19:38:50.540Z,0.40
2018-04-30T19:41:25.847Z,0.40
2018-04-30T19:44:01.161Z,0.50
2018-04-30T19:46:36.408Z,0.40
2018-04-30T19:49:12.428Z,0.50
2018-04-30T19:51:48.430Z,0.50
2018-04-30T19:54:23.670Z,0.80
2018-04-30T19:56:58.975Z,0.50
2018-04-30T19:59:34.248Z,0.60
2018-04-30T20:02:09.584Z,0.40
2018-04-30T20:04:44.713Z,0.50
2018-04-30T20:07:20.233Z,0.50
2018-04-30T20:09:55.336Z,0.50
2018-04-30T20:12:31.354Z,0.60
2018-04-30T20:15:06.731Z,0.40
2018-04-30T20:17:42.684Z,0.60
2018-04-30T20:20:17.923Z,0.63
2018-04-30T20:22:53.235Z,0.57
2018-04-30T20:25:28.339Z,0.50
2018-04-30T20:28:03.680Z,0.50
2018-04-30T20:30:38.855Z,0.60
2018-04-30T20:33:14.827Z,0.43
2018-04-30T20:35:50.191Z,1.07
2018-04-30T20:38:25.487Z,0.60
2018-04-30T20:41:00.857Z,0.53
2018-04-30T20:43:35.963Z,0.63
2018-04-30T20:46:11.228Z,0.63
2018-04-30T20:48:46.376Z,0.90
2018-04-30T20:51:22.324Z,0.60
2018-04-30T20:53:57.491Z,0.50
2018-04-30T20:56:32.909Z,0.60
2018-04-30T20:59:08.047Z,0.97
2018-04-30T21:01:43.947Z,0.83
2018-04-30T21:04:19.225Z,0.50
2018-04-30T21:06:54.486Z,0.70
2018-04-30T21:09:30.448Z,0.50
2018-04-30T21:12:06.381Z,0.40
2018-04-30T21:14:42.410Z,0.60
2018-04-30T21:17:17.571Z,0.57
2018-04-30T21:19:52.845Z,0.53
2018-04-30T21:22:28.115Z,0.50
2018-04-30T21:25:03.430Z,0.60
2018-04-30T21:27:40.116Z,0.63
2018-04-30T21:30:15.264Z,0.40
2018-04-30T21:32:50.549Z,0.53
2018-04-30T21:35:26.543Z,0.60
2018-04-30T21:38:01.824Z,0.53
2018-04-30T21:40:37.045Z,0.50
2018-04-30T21:43:12.416Z,0.60
2018-04-30T21:45:48.477Z,0.43
2018-04-30T21:48:23.833Z,0.70
2018-04-30T21:50:59.181Z,0.70
2018-04-30T21:53:34.487Z,0.43
2018-04-30T21:56:09.758Z,0.70
2018-04-30T21:58:45.083Z,0.43
2018-04-30T22:01:20.443Z,0.50
2018-04-30T22:03:55.771Z,0.47
2018-04-30T22:06:31.125Z,0.77
2018-04-30T22:09:06.271Z,0.50
2018-04-30T22:11:41.611Z,0.70
2018-04-30T22:14:16.855Z,0.40
2018-04-30T22:16:52.186Z,0.50
2018-04-30T22:19:27.501Z,0.50
2018-04-30T22:22:02.758Z,0.90
2018-04-30T22:24:38.098Z,0.80
2018-04-30T22:27:13.972Z,0.70
2018-04-30T22:29:49.097Z,0.80
2018-04-30T22:32:24.346Z,0.47
2018-04-30T22:34:59.546Z,0.50
2018-04-30T22:37:34.926Z,0.47
2018-04-30T22:40:10.350Z,0.50
2018-04-30T22:42:46.565Z,0.60
2018-04-30T22:45:21.678Z,0.67
2018-04-30T22:47:59.036Z,0.87
2018-04-30T22:50:34.395Z,0.70
2018-04-30T22:53:10.375Z,1.00
2018-04-30T22:55:45.732Z,0.60
2018-04-30T22:58:20.937Z,0.60
2018-04-30T23:00:56.263Z,0.80
2018-04-30T23:03:31.603Z,0.83
2018-04-30T23:06:07.487Z,0.60
2018-04-30T23:08:42.632Z,0.60
2018-04-30T23:11:17.866Z,0.80
2018-04-30T23:13:53.905Z,0.50
2018-04-30T23:16:29.895Z,0.50
2018-04-30T23:19:05.814Z,0.67
2018-04-30T23:21:41.697Z,0.87
2018-04-30T23:24:17.725Z,0.83
2018-04-30T23:26:53.056Z,0.60
2018-04-30T23:29:28.290Z,1.20
2018-04-30T23:32:03.525Z,0.60
2018-04-30T23:34:38.787Z,0.63
2018-04-30T23:37:14.295Z,0.60
2018-04-30T23:39:49.350Z,0.53
2018-04-30T23:42:24.650Z,0.60
2018-04-30T23:44:59.859Z,0.50
2018-04-30T23:47:35.072Z,0.50
2018-04-30T23:50:11.141Z,0.50
2018-04-30T23:52:46.276Z,0.30
2018-04-30T23:55:21.379Z,0.57
2018-04-30T23:57:56.661Z,0.57
